Terminal Aerodrome Forecast
Issued by NWS St Louis, MO

Home | Current Version | Previous Version | Text Only | Print | Product List | Glossary On
Versions: 1 2 3 4 5 6 7 8 9 10 11 12 13 14 15 16 17 18 19 20 21 22 23 24 25 26
000
FTUS43 KLSX 042325
TAFSTL
TAF
KSTL 042325Z 0500/0606 09005KT P6SM SCT070 OVC250
     FM050800 10006KT 6SM SHRA OVC030
     FM051700 12009KT P6SM BKN030
     FM052200 11007KT 6SM SHRA VCTS OVC030CB=

USA.gov is the U.S. government's official web portal to all federal, state and local government web resources and services.